Goddard, Iowa
Current Conditions -  °F | °C
As of 9:35 AM on Monday 22 Dec 2014 (Local Time) from KTNU Reporting Station
Unknown Precip Unknown Precip  
Wind Chill: 30°   Ceiling: 1600
Heat Index: 37°   Visibility: 2mi
Dew Point: 37°   Wind: 12mph
Humidity: 100%   Direction: 130°SE
Pressure: 29.64"   Gusts: NA
Location:  41.6475°N, 93.2926°W
Report Text: KTNU 221535Z AUTO 13010KT 2SM -UP SCT007 OVC016 03/03 A2964 RMK AO2
Loading
Personal Weather Stations






























Interactive Weather Map New forecast layout! Learn more

10-Day Weather Forecast

Advertisements
Track Severe Weather on mobile